createdAt,value
2019-01-08T00:01:10.698Z,101194.28
2019-01-08T00:03:39.119Z,101192.64
2019-01-08T00:06:07.865Z,101187.17
2019-01-08T00:08:36.365Z,101180.93
2019-01-08T00:11:04.961Z,101195.40
2019-01-08T00:13:33.666Z,101181.10
2019-01-08T00:16:02.377Z,101181.64
2019-01-08T00:18:30.762Z,101171.45
2019-01-08T00:20:59.446Z,101179.09
2019-01-08T00:23:28.180Z,101157.52
2019-01-08T00:25:56.888Z,101191.06
2019-01-08T00:28:25.314Z,101185.67
2019-01-08T00:30:57.513Z,101194.02
2019-01-08T00:33:26.290Z,101186.70
2019-01-08T00:35:55.411Z,101171.28
2019-01-08T00:38:24.159Z,101198.60
2019-01-08T00:40:52.865Z,101199.33
2019-01-08T00:43:21.590Z,101194.88
2019-01-08T00:45:50.275Z,101195.53
2019-01-08T00:48:19.664Z,101176.24
2019-01-08T00:50:48.361Z,101173.33
2019-01-08T00:53:16.850Z,101175.52
2019-01-08T00:55:45.580Z,101166.59
2019-01-08T00:58:13.968Z,101162.33
2019-01-08T01:00:42.391Z,101157.64
2019-01-08T01:03:10.811Z,101148.23
2019-01-08T01:05:39.484Z,101146.45
2019-01-08T01:08:08.206Z,101148.27
2019-01-08T01:10:36.911Z,101150.50
2019-01-08T01:13:05.344Z,101135.45
2019-01-08T01:15:34.036Z,101145.05
2019-01-08T01:18:02.479Z,101141.56
2019-01-08T01:20:31.167Z,101141.38
2019-01-08T01:22:59.576Z,101147.47
2019-01-08T01:25:28.303Z,101141.75
2019-01-08T01:27:56.729Z,101149.03
2019-01-08T01:30:25.529Z,101147.11
2019-01-08T01:32:54.196Z,101148.84
2019-01-08T01:35:23.653Z,101150.34
2019-01-08T01:37:52.389Z,101156.16
2019-01-08T01:40:21.362Z,101159.62
2019-01-08T01:42:50.051Z,101164.02
2019-01-08T01:45:19.322Z,101148.62
2019-01-08T01:47:48.109Z,101147.02
2019-01-08T01:50:16.860Z,101142.70
2019-01-08T01:52:45.563Z,101139.20
2019-01-08T01:55:14.233Z,101145.25
2019-01-08T01:57:42.673Z,101147.02
2019-01-08T02:00:11.505Z,101140.48
2019-01-08T02:02:40.216Z,101151.44
2019-01-08T02:05:08.976Z,101147.39
2019-01-08T02:07:37.663Z,101143.07
2019-01-08T02:10:08.293Z,101143.34
2019-01-08T02:12:37.043Z,101144.43
2019-01-08T02:15:06.172Z,101136.93
2019-01-08T02:17:34.565Z,101135.70
2019-01-08T02:20:04.010Z,101136.84
2019-01-08T02:22:32.709Z,101142.24
2019-01-08T02:25:02.087Z,101131.53
2019-01-08T02:27:31.587Z,101145.94
2019-01-08T02:30:00.954Z,101133.66
2019-01-08T02:32:29.854Z,101136.66
2019-01-08T02:34:58.526Z,101137.84
2019-01-08T02:37:27.283Z,101133.38
2019-01-08T02:39:56.121Z,101134.10
2019-01-08T02:42:24.816Z,101135.25
2019-01-08T02:44:53.493Z,101130.16
2019-01-08T02:47:22.213Z,101129.30
2019-01-08T02:49:50.878Z,101129.16
2019-01-08T02:52:19.562Z,101135.22
2019-01-08T02:54:48.322Z,101131.27
2019-01-08T02:57:17.690Z,101128.59
2019-01-08T02:59:46.107Z,101120.95
2019-01-08T03:02:14.839Z,101126.80
2019-01-08T03:04:43.523Z,101113.73
2019-01-08T03:07:11.910Z,101113.27
2019-01-08T03:09:40.646Z,101111.14
2019-01-08T03:12:10.315Z,101097.56
2019-01-08T03:14:38.992Z,101108.45
2019-01-08T03:17:07.688Z,101095.38
2019-01-08T03:19:36.111Z,101086.83
2019-01-08T03:22:04.627Z,101085.10
2019-01-08T03:24:33.019Z,101078.16
2019-01-08T03:27:01.844Z,101066.98
2019-01-08T03:29:33.754Z,101071.47
2019-01-08T03:32:01.106Z,101071.82
2019-01-08T03:34:29.862Z,101074.61
2019-01-08T03:36:58.646Z,101085.08
2019-01-08T03:39:27.308Z,101079.59
2019-01-08T03:41:56.019Z,101072.32
2019-01-08T03:44:24.781Z,101069.98
2019-01-08T03:46:53.522Z,101061.40
2019-01-08T03:49:22.272Z,101066.75
2019-01-08T03:51:50.962Z,101054.18
2019-01-08T03:54:19.423Z,101054.05
2019-01-08T03:56:48.130Z,101061.11
2019-01-08T03:59:16.825Z,101040.69
2019-01-08T04:01:45.566Z,101040.98
2019-01-08T04:04:14.242Z,101039.67
2019-01-08T04:06:42.914Z,101041.67
2019-01-08T04:09:11.350Z,101038.56
2019-01-08T04:11:39.755Z,101037.94
2019-01-08T04:14:08.138Z,101042.03
2019-01-08T04:16:36.938Z,101041.11
2019-01-08T04:19:05.345Z,101036.53
2019-01-08T04:21:34.183Z,101029.67
2019-01-08T04:24:04.255Z,101034.76
2019-01-08T04:26:32.990Z,101016.01
2019-01-08T04:29:01.389Z,101012.14
2019-01-08T04:31:30.090Z,101001.89
2019-01-08T04:33:58.508Z,101020.37
2019-01-08T04:36:27.190Z,101000.77
2019-01-08T04:38:55.914Z,101000.00
2019-01-08T04:41:24.742Z,100994.36
2019-01-08T04:43:53.174Z,100993.86
2019-01-08T04:46:21.875Z,100984.56
2019-01-08T04:48:50.540Z,100978.26
2019-01-08T04:51:19.247Z,100982.27
2019-01-08T04:53:47.950Z,100974.23
2019-01-08T04:56:16.645Z,100977.36
2019-01-08T04:58:45.334Z,100973.06
2019-01-08T05:01:14.027Z,100971.79
2019-01-08T05:03:42.850Z,100966.84
2019-01-08T05:06:11.535Z,100963.13
2019-01-08T05:08:40.410Z,100958.41
2019-01-08T05:11:08.842Z,100960.58
2019-01-08T05:13:37.527Z,100949.46
2019-01-08T05:16:06.287Z,100949.97
2019-01-08T05:18:34.979Z,100939.08
2019-01-08T05:21:03.467Z,100944.71
2019-01-08T05:23:32.159Z,100935.36
2019-01-08T05:26:00.893Z,100929.83
2019-01-08T05:28:29.580Z,100923.02
2019-01-08T05:30:58.280Z,100925.56
2019-01-08T05:33:26.792Z,100933.13
2019-01-08T05:35:55.669Z,100940.71
2019-01-08T05:38:24.351Z,100923.33
2019-01-08T05:40:53.254Z,100920.48
2019-01-08T05:43:21.954Z,100902.78
2019-01-08T05:45:50.367Z,100912.08
2019-01-08T05:48:19.090Z,100916.39
2019-01-08T05:50:47.870Z,100905.73
2019-01-08T05:53:16.553Z,100904.41
2019-01-08T05:55:45.265Z,100893.34
2019-01-08T05:58:13.685Z,100895.83
2019-01-08T06:00:43.186Z,100898.42
2019-01-08T06:03:11.861Z,100891.66
2019-01-08T06:05:40.572Z,100888.71
2019-01-08T06:08:08.969Z,100887.84
2019-01-08T06:10:37.418Z,100900.10
2019-01-08T06:13:06.124Z,100877.64
2019-01-08T06:15:34.841Z,100872.05
2019-01-08T06:18:03.248Z,100876.68
2019-01-08T06:20:32.551Z,100868.29
2019-01-08T06:23:00.949Z,100855.67
2019-01-08T06:25:29.657Z,100852.68
2019-01-08T06:27:58.077Z,100864.48
2019-01-08T06:30:26.967Z,100861.03
2019-01-08T06:32:55.667Z,100858.89
2019-01-08T06:35:24.422Z,100864.63
2019-01-08T06:37:52.819Z,100856.55
2019-01-08T06:40:21.535Z,100888.35
2019-01-08T06:42:49.950Z,100868.70
2019-01-08T06:45:18.382Z,100869.88
2019-01-08T06:47:47.055Z,100860.08
2019-01-08T06:50:15.658Z,100849.46
2019-01-08T06:52:44.324Z,100852.23
2019-01-08T06:55:13.085Z,100841.67
2019-01-08T06:57:41.835Z,100852.64
2019-01-08T07:00:11.659Z,100837.81
2019-01-08T07:02:40.331Z,100839.85
2019-01-08T07:05:08.868Z,100835.27
2019-01-08T07:07:37.650Z,100844.56
2019-01-08T07:10:07.854Z,100854.23
2019-01-08T07:12:42.586Z,100838.62
2019-01-08T07:15:11.005Z,100875.45
2019-01-08T07:17:39.802Z,100862.25
2019-01-08T07:20:08.747Z,100867.29
2019-01-08T07:22:37.414Z,100864.75
2019-01-08T07:25:06.469Z,100875.86
2019-01-08T07:27:35.138Z,100888.20
2019-01-08T07:30:03.604Z,100877.18
2019-01-08T07:32:32.020Z,100883.03
2019-01-08T07:35:00.640Z,100865.92
2019-01-08T07:37:29.328Z,100860.98
2019-01-08T07:39:57.741Z,100863.06
2019-01-08T07:42:26.442Z,100884.95
2019-01-08T07:44:55.130Z,100854.98
2019-01-08T07:47:23.834Z,100851.54
2019-01-08T07:49:52.515Z,100854.53
2019-01-08T07:52:21.213Z,100850.36
2019-01-08T07:54:49.602Z,100852.58
2019-01-08T07:57:18.363Z,100834.44
2019-01-08T07:59:47.045Z,100842.06
2019-01-08T08:02:15.794Z,100837.44
2019-01-08T08:04:47.779Z,100835.80
2019-01-08T08:07:14.639Z,100846.78
2019-01-08T08:09:43.345Z,100835.03
2019-01-08T08:12:12.117Z,100831.59
2019-01-08T08:14:40.541Z,100834.58
2019-01-08T08:17:09.254Z,100834.58
2019-01-08T08:19:37.916Z,100824.92
2019-01-08T08:22:06.659Z,100826.29
2019-01-08T08:24:35.114Z,100833.09
2019-01-08T08:27:03.785Z,100836.40
2019-01-08T08:29:32.499Z,100829.19
2019-01-08T08:32:01.160Z,100832.23
2019-01-08T08:34:29.886Z,100828.42
2019-01-08T08:36:58.548Z,100825.47
2019-01-08T08:39:27.331Z,100827.20
2019-01-08T08:41:56.053Z,100822.57
2019-01-08T08:44:24.465Z,100817.49
2019-01-08T08:46:53.161Z,100804.79
2019-01-08T08:49:21.867Z,100811.95
2019-01-08T08:51:50.309Z,100803.06
2019-01-08T08:54:18.965Z,100806.11
2019-01-08T08:56:47.682Z,100805.66
2019-01-08T08:59:16.417Z,100808.31
2019-01-08T09:01:45.130Z,100825.69
2019-01-08T09:04:13.528Z,100791.12
2019-01-08T09:06:42.247Z,100797.84
2019-01-08T09:09:10.648Z,100798.06
2019-01-08T09:11:39.324Z,100796.70
2019-01-08T09:14:08.108Z,100799.50
2019-01-08T09:16:36.514Z,100797.00
2019-01-08T09:19:05.231Z,100791.39
2019-01-08T09:21:33.971Z,100805.73
2019-01-08T09:24:02.375Z,100812.25
2019-01-08T09:26:30.809Z,100806.80
2019-01-08T09:28:59.209Z,100812.25
2019-01-08T09:31:27.945Z,100811.88
2019-01-08T09:33:56.615Z,100817.83
2019-01-08T09:36:25.039Z,100811.56
2019-01-08T09:38:53.883Z,100817.06
2019-01-08T09:41:22.574Z,100819.02
2019-01-08T09:43:51.319Z,100814.62
2019-01-08T09:46:19.948Z,100818.39
2019-01-08T09:48:48.380Z,100814.94
2019-01-08T09:51:17.074Z,100817.53
2019-01-08T09:53:45.781Z,100817.89
2019-01-08T09:56:14.206Z,100814.17
2019-01-08T09:58:42.909Z,100809.41
2019-01-08T10:01:11.613Z,100823.83
2019-01-08T10:03:40.311Z,100823.16
2019-01-08T10:06:08.742Z,100829.78
2019-01-08T10:08:37.159Z,100814.35
2019-01-08T10:11:07.342Z,100813.89
2019-01-08T10:13:35.872Z,100819.16
2019-01-08T10:16:04.286Z,100805.91
2019-01-08T10:18:32.993Z,100805.91
2019-01-08T10:21:01.680Z,100808.00
2019-01-08T10:23:30.245Z,100809.05
2019-01-08T10:25:58.583Z,100801.18
2019-01-08T10:28:26.998Z,100780.33
2019-01-08T10:30:55.673Z,100782.45
2019-01-08T10:33:24.112Z,100796.59
2019-01-08T10:35:52.773Z,100787.88
2019-01-08T10:38:21.189Z,100776.48
2019-01-08T10:40:49.926Z,100769.93
2019-01-08T10:43:18.602Z,100773.33
2019-01-08T10:45:47.111Z,100765.38
2019-01-08T10:48:15.782Z,100756.13
2019-01-08T10:50:44.460Z,100763.38
2019-01-08T10:53:12.891Z,100746.48
2019-01-08T10:55:41.302Z,100761.38
2019-01-08T10:58:09.735Z,100740.08
2019-01-08T11:00:38.494Z,100740.03
2019-01-08T11:03:07.255Z,100769.93
2019-01-08T11:05:35.984Z,100742.33
2019-01-08T11:08:04.408Z,100740.61
2019-01-08T11:10:33.186Z,100735.98
2019-01-08T11:13:01.850Z,100765.86
2019-01-08T11:15:30.548Z,100740.06
2019-01-08T11:17:59.215Z,100734.00
2019-01-08T11:20:27.897Z,100731.02
2019-01-08T11:22:56.603Z,100762.67
2019-01-08T11:25:25.355Z,100728.87
2019-01-08T11:27:55.579Z,100742.86
2019-01-08T11:30:24.294Z,100746.79
2019-01-08T11:32:54.833Z,100761.48
2019-01-08T11:35:23.440Z,100764.80
2019-01-08T11:37:52.139Z,100771.98
2019-01-08T11:40:20.910Z,100747.75
2019-01-08T11:42:49.318Z,100749.42
2019-01-08T11:45:18.025Z,100749.76
2019-01-08T11:47:46.805Z,100736.45
2019-01-08T11:50:15.196Z,100732.06
2019-01-08T11:52:44.000Z,100736.23
2019-01-08T11:55:12.671Z,100738.33
2019-01-08T11:57:41.106Z,100766.74
2019-01-08T12:00:12.004Z,100745.95
2019-01-08T12:02:47.712Z,100731.33
2019-01-08T12:05:11.305Z,100737.59
2019-01-08T12:07:39.711Z,100744.36
2019-01-08T12:10:08.426Z,100754.61
2019-01-08T12:12:37.149Z,100738.28
2019-01-08T12:15:07.202Z,100738.95
2019-01-08T12:17:35.626Z,100729.31
2019-01-08T12:20:07.125Z,100715.29
2019-01-08T12:22:40.805Z,100723.70
2019-01-08T12:25:06.614Z,100707.66
2019-01-08T12:27:35.322Z,100706.73
2019-01-08T12:30:08.104Z,100710.01
2019-01-08T12:32:36.837Z,100744.34
2019-01-08T12:35:05.600Z,100716.14
2019-01-08T12:37:34.272Z,100719.05
2019-01-08T12:40:02.968Z,100787.55
2019-01-08T12:42:34.678Z,100731.52
2019-01-08T12:45:03.173Z,100734.80
2019-01-08T12:47:31.685Z,100737.42
2019-01-08T12:50:00.563Z,100722.91
2019-01-08T12:52:29.326Z,100713.23
2019-01-08T12:54:58.019Z,100720.23
2019-01-08T12:57:26.431Z,100715.92
2019-01-08T12:59:55.144Z,100717.27
2019-01-08T13:02:23.571Z,100735.48
2019-01-08T13:04:53.728Z,100719.96
2019-01-08T13:07:22.162Z,100715.08
2019-01-08T13:09:50.853Z,100716.27
2019-01-08T13:12:19.276Z,100704.47
2019-01-08T13:14:47.867Z,100697.38
2019-01-08T13:17:16.527Z,100705.47
2019-01-08T13:19:45.247Z,100698.19
2019-01-08T13:22:13.701Z,100699.69
2019-01-08T13:24:42.114Z,100712.77
2019-01-08T13:27:10.795Z,100736.03
2019-01-08T13:29:39.223Z,100729.73
2019-01-08T13:32:07.961Z,100713.94
2019-01-08T13:34:36.391Z,100729.89
2019-01-08T13:37:04.924Z,100720.50
2019-01-08T13:39:33.342Z,100730.17
2019-01-08T13:42:02.028Z,100726.77
2019-01-08T13:44:30.738Z,100747.44
2019-01-08T13:46:59.418Z,100731.81
2019-01-08T13:49:28.131Z,100716.89
2019-01-08T13:51:56.806Z,100727.52
2019-01-08T13:54:25.259Z,100762.88
2019-01-08T13:56:53.975Z,100733.16
2019-01-08T13:59:22.757Z,100733.55
2019-01-08T14:01:51.525Z,100744.09
2019-01-08T14:04:20.277Z,100752.33
2019-01-08T14:06:48.952Z,100758.02
2019-01-08T14:09:17.668Z,100763.72
2019-01-08T14:11:46.133Z,100752.28
2019-01-08T14:14:14.927Z,100748.55
2019-01-08T14:16:43.607Z,100747.95
2019-01-08T14:19:12.016Z,100754.22
2019-01-08T14:21:40.446Z,100759.23
2019-01-08T14:24:09.161Z,100759.44
2019-01-08T14:26:37.636Z,100767.14
2019-01-08T14:29:06.404Z,100768.86
2019-01-08T14:31:35.081Z,100768.08
2019-01-08T14:34:03.847Z,100762.09
2019-01-08T14:36:33.504Z,100754.06
2019-01-08T14:39:02.218Z,100801.09
2019-01-08T14:41:30.952Z,100778.12
2019-01-08T14:43:59.371Z,100799.83
2019-01-08T14:46:27.810Z,100821.55
2019-01-08T14:48:56.500Z,100793.37
2019-01-08T14:51:26.168Z,100798.97
2019-01-08T14:53:54.598Z,100763.14
2019-01-08T14:56:23.016Z,100779.84
2019-01-08T14:58:51.724Z,100767.55
2019-01-08T15:01:20.469Z,100781.11
2019-01-08T15:03:49.189Z,100783.78
2019-01-08T15:06:17.862Z,100768.48
2019-01-08T15:08:46.343Z,100770.05
2019-01-08T15:11:14.847Z,100780.89
2019-01-08T15:13:43.301Z,100789.73
2019-01-08T15:16:12.012Z,100811.05
2019-01-08T15:18:40.714Z,100791.91
2019-01-08T15:21:09.170Z,100797.71
2019-01-08T15:23:37.834Z,100817.02
2019-01-08T15:26:06.626Z,100810.55
2019-01-08T15:28:35.308Z,100808.64
2019-01-08T15:31:04.020Z,100808.69
2019-01-08T15:33:32.688Z,100817.16
2019-01-08T15:36:01.103Z,100808.33
2019-01-08T15:38:29.810Z,100817.26
2019-01-08T15:40:58.502Z,100819.94
2019-01-08T15:43:27.265Z,100833.95
2019-01-08T15:45:55.670Z,100823.89
2019-01-08T15:48:24.349Z,100829.73
2019-01-08T15:50:53.221Z,100827.01
2019-01-08T15:53:21.968Z,100823.61
2019-01-08T15:55:50.648Z,100822.38
2019-01-08T15:58:19.443Z,100829.05
2019-01-08T16:00:48.219Z,100828.23
2019-01-08T16:03:16.614Z,100817.66
2019-01-08T16:05:45.012Z,100816.80
2019-01-08T16:08:13.752Z,100826.09
2019-01-08T16:10:42.529Z,100821.42
2019-01-08T16:13:10.992Z,100819.39
2019-01-08T16:15:39.682Z,100830.95
2019-01-08T16:18:08.416Z,100822.97
2019-01-08T16:20:36.847Z,100832.77
2019-01-08T16:23:05.632Z,100823.42
2019-01-08T16:25:34.253Z,100818.52
2019-01-08T16:28:02.927Z,100808.31
2019-01-08T16:30:31.710Z,100818.16
2019-01-08T16:33:00.406Z,100815.26
2019-01-08T16:35:29.120Z,100815.17
2019-01-08T16:37:57.902Z,100821.34
2019-01-08T16:40:26.618Z,100821.34
2019-01-08T16:42:55.365Z,100818.43
2019-01-08T16:45:24.067Z,100809.05
2019-01-08T16:47:52.744Z,100811.36
2019-01-08T16:50:21.577Z,100818.25
2019-01-08T16:52:50.342Z,100826.87
2019-01-08T16:55:19.683Z,100820.48
2019-01-08T16:57:48.546Z,100828.51
2019-01-08T17:00:17.364Z,100822.20
2019-01-08T17:02:45.858Z,100828.96
2019-01-08T17:05:14.514Z,100831.05
2019-01-08T17:07:42.944Z,100821.09
2019-01-08T17:10:11.702Z,100815.48
2019-01-08T17:12:40.421Z,100817.74
2019-01-08T17:15:09.281Z,100838.75
2019-01-08T17:17:37.831Z,100819.47
2019-01-08T17:20:07.662Z,100827.09
2019-01-08T17:22:36.208Z,100822.59
2019-01-08T17:25:05.702Z,100818.01
2019-01-08T17:27:34.392Z,100823.09
2019-01-08T17:30:03.185Z,100820.73
2019-01-08T17:32:32.014Z,100808.80
2019-01-08T17:35:00.739Z,100816.95
2019-01-08T17:37:29.444Z,100809.03
2019-01-08T17:39:58.815Z,100797.05
2019-01-08T17:42:27.233Z,100801.18
2019-01-08T17:44:55.660Z,100815.16
2019-01-08T17:47:24.625Z,100788.52
2019-01-08T17:49:53.410Z,100794.96
2019-01-08T17:52:22.107Z,100796.32
2019-01-08T17:54:51.402Z,100802.30
2019-01-08T17:57:20.117Z,100816.33
2019-01-08T17:59:48.873Z,100801.90
2019-01-08T18:02:17.624Z,100800.13
2019-01-08T18:04:46.294Z,100817.64
2019-01-08T18:07:14.802Z,100816.28
2019-01-08T18:09:43.508Z,100823.81
2019-01-08T18:12:12.321Z,100853.22
2019-01-08T18:14:41.009Z,100840.27
2019-01-08T18:17:09.854Z,100845.14
2019-01-08T18:19:38.618Z,100845.96
2019-01-08T18:22:07.329Z,100828.08
2019-01-08T18:24:36.069Z,100840.66
2019-01-08T18:27:04.967Z,100850.05
2019-01-08T18:29:33.370Z,100846.69
2019-01-08T18:32:03.739Z,100835.12
2019-01-08T18:34:32.342Z,100842.42
2019-01-08T18:37:00.997Z,100833.44
2019-01-08T18:39:29.414Z,100840.84
2019-01-08T18:41:57.877Z,100842.02
2019-01-08T18:44:26.277Z,100839.62
2019-01-08T18:46:54.652Z,100848.69
2019-01-08T18:49:23.396Z,100869.16
2019-01-08T18:51:52.118Z,100832.18
2019-01-08T18:54:20.834Z,100832.55
2019-01-08T18:56:49.644Z,100844.56
2019-01-08T18:59:18.952Z,100841.75
2019-01-08T19:01:47.749Z,100830.23
2019-01-08T19:04:16.531Z,100827.23
2019-01-08T19:06:45.995Z,100821.92
2019-01-08T19:09:26.154Z,100836.26
2019-01-08T19:11:55.436Z,100845.97
2019-01-08T19:14:27.181Z,100854.49
2019-01-08T19:16:55.965Z,100846.33
2019-01-08T19:19:24.734Z,100841.69
2019-01-08T19:21:53.573Z,100855.56
2019-01-08T19:24:22.534Z,100861.22
2019-01-08T19:26:51.238Z,100866.09
2019-01-08T19:29:20.024Z,100858.74
2019-01-08T19:31:48.585Z,100866.53
2019-01-08T19:34:17.347Z,100920.52
2019-01-08T19:36:45.767Z,100881.27
2019-01-08T19:39:14.485Z,100873.47
2019-01-08T19:41:43.221Z,100861.09
2019-01-08T19:44:11.939Z,100857.29
2019-01-08T19:46:40.462Z,100860.58
2019-01-08T19:49:08.863Z,100870.71
2019-01-08T19:51:37.626Z,100887.06
2019-01-08T19:54:06.417Z,100874.70
2019-01-08T19:56:35.101Z,100868.88
2019-01-08T19:59:03.822Z,100856.08
2019-01-08T20:01:32.402Z,100858.11
2019-01-08T20:04:01.150Z,100860.05
2019-01-08T20:06:29.927Z,100851.06
2019-01-08T20:08:58.820Z,100841.89
2019-01-08T20:11:27.556Z,100830.12
2019-01-08T20:13:56.303Z,100843.50
2019-01-08T20:16:24.748Z,100838.78
2019-01-08T20:18:53.558Z,100849.47
2019-01-08T20:21:22.259Z,100857.06
2019-01-08T20:23:50.763Z,100858.69
2019-01-08T20:26:19.446Z,100855.61
2019-01-08T20:28:48.121Z,100892.09
2019-01-08T20:31:17.724Z,100864.06
2019-01-08T20:33:46.498Z,100855.54
2019-01-08T20:36:15.203Z,100849.55
2019-01-08T20:38:43.887Z,100872.14
2019-01-08T20:41:13.933Z,100870.22
2019-01-08T20:43:42.945Z,100867.03
2019-01-08T20:46:11.394Z,100871.60
2019-01-08T20:48:40.108Z,100859.66
2019-01-08T20:51:08.826Z,100865.84
2019-01-08T20:53:37.244Z,100871.33
2019-01-08T20:56:05.688Z,100862.27
2019-01-08T20:58:34.128Z,100845.72
2019-01-08T21:01:02.868Z,100854.91
2019-01-08T21:03:31.390Z,100855.97
2019-01-08T21:06:00.100Z,100858.05
2019-01-08T21:08:28.818Z,100868.25
2019-01-08T21:10:58.781Z,100883.88
2019-01-08T21:13:27.212Z,100883.53
2019-01-08T21:15:55.923Z,100866.53
2019-01-08T21:18:24.304Z,100857.91
2019-01-08T21:20:55.191Z,100879.72
2019-01-08T21:23:23.926Z,100862.37
2019-01-08T21:25:52.679Z,100871.52
2019-01-08T21:28:21.359Z,100863.17
2019-01-08T21:30:50.170Z,100855.97
2019-01-08T21:33:18.875Z,100859.64
2019-01-08T21:35:47.649Z,100861.31
2019-01-08T21:38:16.369Z,100851.70
2019-01-08T21:40:45.065Z,100851.98
2019-01-08T21:43:13.775Z,100860.80
2019-01-08T21:45:42.454Z,100853.20
2019-01-08T21:48:11.135Z,100860.70
2019-01-08T21:50:39.545Z,100888.20
2019-01-08T21:53:08.266Z,100843.76
2019-01-08T21:55:36.950Z,100895.88
2019-01-08T21:58:05.616Z,100849.39
2019-01-08T22:00:34.097Z,100857.81
2019-01-08T22:03:02.885Z,100845.38
2019-01-08T22:05:31.702Z,100876.12
2019-01-08T22:08:00.744Z,100871.00
2019-01-08T22:10:29.488Z,100869.73
2019-01-08T22:12:58.182Z,100883.22
2019-01-08T22:15:26.899Z,100889.42
2019-01-08T22:17:55.696Z,100888.41
2019-01-08T22:20:24.376Z,100873.12
2019-01-08T22:22:53.133Z,100862.83
2019-01-08T22:25:21.574Z,100898.79
2019-01-08T22:27:50.293Z,100870.95
2019-01-08T22:30:18.688Z,100862.12
2019-01-08T22:32:47.409Z,100863.84
2019-01-08T22:35:16.099Z,100868.52
2019-01-08T22:37:44.847Z,100864.25
2019-01-08T22:40:13.659Z,100837.11
2019-01-08T22:42:42.475Z,100831.13
2019-01-08T22:45:11.241Z,100828.45
2019-01-08T22:47:39.954Z,100836.41
2019-01-08T22:50:09.219Z,100843.30
2019-01-08T22:52:38.076Z,100830.13
2019-01-08T22:55:06.663Z,100827.19
2019-01-08T22:57:35.831Z,100832.25
2019-01-08T23:00:09.186Z,100850.09
2019-01-08T23:02:38.758Z,100845.89
2019-01-08T23:05:10.928Z,100858.67
2019-01-08T23:07:37.978Z,100877.13
2019-01-08T23:10:07.196Z,100844.83
2019-01-08T23:12:36.080Z,100871.00
2019-01-08T23:15:13.211Z,100858.27
2019-01-08T23:17:41.670Z,100845.31
2019-01-08T23:20:10.475Z,100849.87
2019-01-08T23:22:39.230Z,100838.39
2019-01-08T23:25:08.073Z,100837.86
2019-01-08T23:27:37.313Z,100841.73
2019-01-08T23:30:08.138Z,100846.53
2019-01-08T23:32:36.894Z,100856.49
2019-01-08T23:35:06.863Z,100861.44
2019-01-08T23:37:35.612Z,100866.45
2019-01-08T23:40:05.304Z,100849.98
2019-01-08T23:42:44.105Z,100852.12
2019-01-08T23:45:13.044Z,100850.45
2019-01-08T23:47:41.843Z,100855.97
2019-01-08T23:50:11.171Z,100840.31
2019-01-08T23:53:05.960Z,100839.11
2019-01-08T23:55:37.282Z,100837.44
2019-01-08T23:58:06.981Z,100841.35
